sensor_id;sensor_type;location;lat;lon;timestamp;pressure;altitude;pressure_sealevel;temperature;humidity
64544;BME280;50936;51.660;5.616;2023-02-02T00:01:52;101755.75;;;7.50;100.00
64544;BME280;50936;51.660;5.616;2023-02-02T00:04:26;101746.81;;;7.50;100.00
64544;BME280;50936;51.660;5.616;2023-02-02T00:06:58;101750.31;;;7.52;100.00
64544;BME280;50936;51.660;5.616;2023-02-02T00:09:30;101741.38;;;7.51;100.00
64544;BME280;50936;51.660;5.616;2023-02-02T00:11:58;101756.50;;;7.54;100.00
64544;BME280;50936;51.660;5.616;2023-02-02T00:14:26;101752.94;;;7.54;100.00
64544;BME280;50936;51.660;5.616;2023-02-02T00:16:55;101750.19;;;7.55;100.00
64544;BME280;50936;51.660;5.616;2023-02-02T00:19:28;101751.81;;;7.59;100.00
64544;BME280;50936;51.660;5.616;2023-02-02T00:21:56;101750.03;;;7.58;100.00
64544;BME280;50936;51.660;5.616;2023-02-02T00:24:23;101750.03;;;7.58;100.00
64544;BME280;50936;51.660;5.616;2023-02-02T00:26:54;101750.03;;;7.58;100.00
64544;BME280;50936;51.660;5.616;2023-02-02T00:29:27;101755.41;;;7.58;100.00
64544;BME280;50936;51.660;5.616;2023-02-02T00:31:56;101737.56;;;7.57;100.00
64544;BME280;50936;51.660;5.616;2023-02-02T00:34:23;101757.28;;;7.56;100.00
64544;BME280;50936;51.660;5.616;2023-02-02T00:36:51;101757.28;;;7.56;100.00
64544;BME280;50936;51.660;5.616;2023-02-02T00:39:20;101760.94;;;7.55;100.00
64544;BME280;50936;51.660;5.616;2023-02-02T00:41:51;101760.94;;;7.55;100.00
64544;BME280;50936;51.660;5.616;2023-02-02T00:44:18;101762.81;;;7.53;100.00
64544;BME280;50936;51.660;5.616;2023-02-02T00:47:04;101762.81;;;7.53;100.00
64544;BME280;50936;51.660;5.616;2023-02-02T00:49:31;101760.06;;;7.55;100.00
64544;BME280;50936;51.660;5.616;2023-02-02T00:51:58;101761.75;;;7.57;100.00
64544;BME280;50936;51.660;5.616;2023-02-02T00:54:26;101761.69;;;7.59;100.00
64544;BME280;50936;51.660;5.616;2023-02-02T00:56:53;101764.31;;;7.60;100.00
64544;BME280;50936;51.660;5.616;2023-02-02T00:59:20;101755.34;;;7.60;100.00
64544;BME280;50936;51.660;5.616;2023-02-02T01:01:48;101749.00;;;7.62;100.00
64544;BME280;50936;51.660;5.616;2023-02-02T01:04:15;101751.69;;;7.62;100.00
64544;BME280;50936;51.660;5.616;2023-02-02T01:06:42;101756.16;;;7.62;100.00
64544;BME280;50936;51.660;5.616;2023-02-02T01:09:09;101751.53;;;7.65;100.00
64544;BME280;50936;51.660;5.616;2023-02-02T01:11:36;101753.28;;;7.66;100.00
64544;BME280;50936;51.660;5.616;2023-02-02T01:14:03;101761.28;;;7.68;100.00
64544;BME280;50936;51.660;5.616;2023-02-02T01:16:30;101760.44;;;7.67;100.00
64544;BME280;50936;51.660;5.616;2023-02-02T01:18:59;101765.81;;;7.67;100.00
64544;BME280;50936;51.660;5.616;2023-02-02T01:21:27;101750.53;;;7.68;100.00
64544;BME280;50936;51.660;5.616;2023-02-02T01:23:54;101755.06;;;7.67;100.00
64544;BME280;50936;51.660;5.616;2023-02-02T01:26:21;101752.44;;;7.66;100.00
64544;BME280;50936;51.660;5.616;2023-02-02T01:28:48;101754.16;;;7.67;100.00
64544;BME280;50936;51.660;5.616;2023-02-02T01:31:16;101755.06;;;7.67;100.00
64544;BME280;50936;51.660;5.616;2023-02-02T01:33:46;101740.78;;;7.65;100.00
64544;BME280;50936;51.660;5.616;2023-02-02T01:36:20;101754.16;;;7.67;100.00
64544;BME280;50936;51.660;5.616;2023-02-02T01:38:50;101758.66;;;7.66;100.00
64544;BME280;50936;51.660;5.616;2023-02-02T01:41:23;101755.91;;;7.68;100.00
64544;BME280;50936;51.660;5.616;2023-02-02T01:43:52;101753.16;;;7.69;100.00
64544;BME280;50936;51.660;5.616;2023-02-02T01:46:24;101755.06;;;7.67;100.00
64544;BME280;50936;51.660;5.616;2023-02-02T01:49:18;101755.19;;;7.64;100.00
64544;BME280;50936;51.660;5.616;2023-02-02T01:51:49;101752.50;;;7.64;100.00
64544;BME280;50936;51.660;5.616;2023-02-02T01:54:35;101768.63;;;7.64;100.00
64544;BME280;50936;51.660;5.616;2023-02-02T01:59:40;101764.16;;;7.63;100.00
64544;BME280;50936;51.660;5.616;2023-02-02T02:02:10;101764.16;;;7.63;100.00
64544;BME280;50936;51.660;5.616;2023-02-02T02:04:38;101771.31;;;7.64;100.00
64544;BME280;50936;51.660;5.616;2023-02-02T02:07:08;101755.25;;;7.63;100.00
64544;BME280;50936;51.660;5.616;2023-02-02T02:09:36;101766.06;;;7.61;100.00
64544;BME280;50936;51.660;5.616;2023-02-02T02:12:10;101760.78;;;7.58;100.00
64544;BME280;50936;51.660;5.616;2023-02-02T02:14:42;101759.88;;;7.59;100.00
64544;BME280;50936;51.660;5.616;2023-02-02T02:35:52;101755.56;;;7.55;100.00
64544;BME280;50936;51.660;5.616;2023-02-02T02:41:21;101764.56;;;7.54;100.00
64544;BME280;50936;51.660;5.616;2023-02-02T02:44:00;101762.69;;;7.56;100.00
64544;BME280;50936;51.660;5.616;2023-02-02T02:46:31;101766.31;;;7.55;100.00
64544;BME280;50936;51.660;5.616;2023-02-02T02:49:00;101768.19;;;7.53;100.00
64544;BME280;50936;51.660;5.616;2023-02-02T02:54:30;101763.81;;;7.50;100.00
64544;BME280;50936;51.660;5.616;2023-02-02T02:57:13;101763.81;;;7.50;100.00
64544;BME280;50936;51.660;5.616;2023-02-02T02:59:50;101762.94;;;7.50;100.00
64544;BME280;50936;51.660;5.616;2023-02-02T03:03:04;101763.13;;;7.45;100.00
64544;BME280;50936;51.660;5.616;2023-02-02T03:05:53;101765.91;;;7.44;100.00
64544;BME280;50936;51.660;5.616;2023-02-02T03:08:31;101762.25;;;7.45;100.00
64544;BME280;50936;51.660;5.616;2023-02-02T03:11:05;101758.75;;;7.43;100.00
64544;BME280;50936;51.660;5.616;2023-02-02T03:13:35;101750.59;;;7.46;100.00
64544;BME280;50936;51.660;5.616;2023-02-02T03:16:02;101762.13;;;7.48;100.00
64544;BME280;50936;51.660;5.616;2023-02-02T03:18:30;101753.22;;;7.47;100.00
64544;BME280;50936;51.660;5.616;2023-02-02T03:20:58;101746.00;;;7.48;100.00
64544;BME280;50936;51.660;5.616;2023-02-02T03:23:26;101746.94;;;7.47;100.00
64544;BME280;50936;51.660;5.616;2023-02-02T03:25:54;101751.50;;;7.45;100.00
64544;BME280;50936;51.660;5.616;2023-02-02T03:28:22;101741.78;;;7.42;100.00
64544;BME280;50936;51.660;5.616;2023-02-02T03:30:51;101749.84;;;7.42;100.00
64544;BME280;50936;51.660;5.616;2023-02-02T03:33:20;101743.56;;;7.42;100.00
64544;BME280;50936;51.660;5.616;2023-02-02T03:35:47;101750.81;;;7.40;100.00
64544;BME280;50936;51.660;5.616;2023-02-02T03:38:14;101750.75;;;7.41;100.00
64544;BME280;50936;51.660;5.616;2023-02-02T03:40:41;101753.38;;;7.43;100.00
64544;BME280;50936;51.660;5.616;2023-02-02T03:43:08;101754.31;;;7.42;100.00
64544;BME280;50936;51.660;5.616;2023-02-02T03:45:35;101747.19;;;7.41;100.00
64544;BME280;50936;51.660;5.616;2023-02-02T03:48:03;101743.72;;;7.39;100.00
64544;BME280;50936;51.660;5.616;2023-02-02T03:50:32;101750.81;;;7.40;100.00
64544;BME280;50936;51.660;5.616;2023-02-02T03:52:59;101759.56;;;7.45;100.00
64544;BME280;50936;51.660;5.616;2023-02-02T03:55:25;101775.69;;;7.45;100.00
64544;BME280;50936;51.660;5.616;2023-02-02T03:57:52;101775.69;;;7.45;100.00
64544;BME280;50936;51.660;5.616;2023-02-02T04:00:20;101765.75;;;7.47;100.00
64544;BME280;50936;51.660;5.616;2023-02-02T04:02:47;101781.81;;;7.48;100.00
64544;BME280;50936;51.660;5.616;2023-02-02T04:05:14;101779.06;;;7.50;100.00
64544;BME280;50936;51.660;5.616;2023-02-02T04:07:41;101780.84;;;7.51;100.00
64544;BME280;50936;51.660;5.616;2023-02-02T04:10:09;101787.94;;;7.52;100.00
64544;BME280;50936;51.660;5.616;2023-02-02T04:12:37;101777.19;;;7.52;100.00
64544;BME280;50936;51.660;5.616;2023-02-02T04:15:05;101791.31;;;7.57;100.00
64544;BME280;50936;51.660;5.616;2023-02-02T04:17:32;101794.81;;;7.59;100.00
64544;BME280;50936;51.660;5.616;2023-02-02T04:20:03;101797.44;;;7.61;100.00
64544;BME280;50936;51.660;5.616;2023-02-02T04:22:32;101794.69;;;7.62;100.00
64544;BME280;50936;51.660;5.616;2023-02-02T04:25:01;101783.94;;;7.62;100.00
64544;BME280;50936;51.660;5.616;2023-02-02T04:27:28;101789.16;;;7.65;100.00
64544;BME280;50936;51.660;5.616;2023-02-02T04:29:58;101795.44;;;7.66;100.00
64544;BME280;50936;51.660;5.616;2023-02-02T04:32:25;101787.16;;;7.70;100.00
64544;BME280;50936;51.660;5.616;2023-02-02T04:34:51;101795.25;;;7.70;100.00
64544;BME280;50936;51.660;5.616;2023-02-02T04:37:18;101798.88;;;7.69;100.00
64544;BME280;50936;51.660;5.616;2023-02-02T04:39:47;101794.44;;;7.68;100.00
64544;BME280;50936;51.660;5.616;2023-02-02T04:42:14;101785.44;;;7.69;100.00
64544;BME280;50936;51.660;5.616;2023-02-02T04:44:41;101788.19;;;7.68;100.00
64544;BME280;50936;51.660;5.616;2023-02-02T04:47:09;101776.69;;;7.64;100.00
64544;BME280;50936;51.660;5.616;2023-02-02T04:49:36;101774.06;;;7.63;100.00
64544;BME280;50936;51.660;5.616;2023-02-02T04:52:03;101779.56;;;7.60;100.00
64544;BME280;50936;51.660;5.616;2023-02-02T04:54:31;101777.88;;;7.57;100.00
64544;BME280;50936;51.660;5.616;2023-02-02T04:56:59;101776.13;;;7.56;100.00
64544;BME280;50936;51.660;5.616;2023-02-02T04:59:27;101782.31;;;7.58;100.00
64544;BME280;50936;51.660;5.616;2023-02-02T05:01:58;101795.63;;;7.61;100.00
64544;BME280;50936;51.660;5.616;2023-02-02T05:04:27;101797.31;;;7.64;100.00
64544;BME280;50936;51.660;5.616;2023-02-02T05:06:54;101799.94;;;7.65;100.00
64544;BME280;50936;51.660;5.616;2023-02-02T05:09:21;101796.31;;;7.66;100.00
64544;BME280;50936;51.660;5.616;2023-02-02T05:11:47;101798.06;;;7.67;100.00
64544;BME280;50936;51.660;5.616;2023-02-02T05:14:14;101794.44;;;7.68;100.00
64544;BME280;50936;51.660;5.616;2023-02-02T05:16:44;101791.78;;;7.67;100.00
64544;BME280;50936;51.660;5.616;2023-02-02T05:19:11;101795.28;;;7.69;100.00
64544;BME280;50936;51.660;5.616;2023-02-02T05:21:38;101790.81;;;7.69;100.00
64544;BME280;50936;51.660;5.616;2023-02-02T05:24:05;101789.91;;;7.69;100.00
64544;BME280;50936;51.660;5.616;2023-02-02T05:26:32;101791.78;;;7.67;100.00
64544;BME280;50936;51.660;5.616;2023-02-02T05:29:00;101795.38;;;7.67;100.00
64544;BME280;50936;51.660;5.616;2023-02-02T05:31:28;101793.50;;;7.69;100.00
64544;BME280;50936;51.660;5.616;2023-02-02T05:33:57;101808.69;;;7.70;100.00
64544;BME280;50936;51.660;5.616;2023-02-02T05:36:24;101800.75;;;7.67;100.00
64544;BME280;50936;51.660;5.616;2023-02-02T05:38:51;101805.19;;;7.68;100.00
64544;BME280;50936;51.660;5.616;2023-02-02T05:41:18;101802.50;;;7.68;100.00
64544;BME280;50936;51.660;5.616;2023-02-02T05:43:45;101799.81;;;7.68;100.00
64544;BME280;50936;51.660;5.616;2023-02-02T05:46:12;101806.06;;;7.69;100.00
64544;BME280;50936;51.660;5.616;2023-02-02T05:48:39;101808.69;;;7.70;100.00
64544;BME280;50936;51.660;5.616;2023-02-02T05:51:13;101810.44;;;7.71;100.00
64544;BME280;50936;51.660;5.616;2023-02-02T05:53:53;101804.00;;;7.76;100.00
64544;BME280;50936;51.660;5.616;2023-02-02T05:56:20;101808.44;;;7.77;100.00
64544;BME280;50936;51.660;5.616;2023-02-02T05:58:47;101803.13;;;7.75;100.00
64544;BME280;50936;51.660;5.616;2023-02-02T06:01:16;101810.28;;;7.75;100.00
64544;BME280;50936;51.660;5.616;2023-02-02T06:03:44;101808.44;;;7.77;100.00
64544;BME280;50936;51.660;5.616;2023-02-02T06:06:11;101801.31;;;7.76;100.00
64544;BME280;50936;51.660;5.616;2023-02-02T06:08:38;101808.44;;;7.77;100.00
64544;BME280;50936;51.660;5.616;2023-02-02T06:11:13;101804.06;;;7.74;100.00
64544;BME280;50936;51.660;5.616;2023-02-02T06:13:42;101797.81;;;7.74;100.00
64544;BME280;50936;51.660;5.616;2023-02-02T06:16:11;101815.81;;;7.71;100.00
64544;BME280;50936;51.660;5.616;2023-02-02T06:18:39;101812.19;;;7.72;100.00
64544;BME280;50936;51.660;5.616;2023-02-02T06:21:06;101821.19;;;7.71;100.00
64544;BME280;50936;51.660;5.616;2023-02-02T06:23:33;101825.63;;;7.72;100.00
64544;BME280;50936;51.660;5.616;2023-02-02T06:26:01;101817.56;;;7.72;100.00
64544;BME280;50936;51.660;5.616;2023-02-02T06:28:30;101817.56;;;7.72;100.00
64544;BME280;50936;51.660;5.616;2023-02-02T06:31:05;101822.13;;;7.70;100.00
64544;BME280;50936;51.660;5.616;2023-02-02T06:33:33;101818.63;;;7.68;100.00
64544;BME280;50936;51.660;5.616;2023-02-02T06:36:01;101818.63;;;7.68;100.00
64544;BME280;50936;51.660;5.616;2023-02-02T06:38:31;101823.88;;;7.71;100.00
64544;BME280;50936;51.660;5.616;2023-02-02T06:40:59;101827.50;;;7.70;100.00
64544;BME280;50936;51.660;5.616;2023-02-02T06:43:27;101824.81;;;7.70;100.00
64544;BME280;50936;51.660;5.616;2023-02-02T06:45:56;101828.47;;;7.69;100.00
64544;BME280;50936;51.660;5.616;2023-02-02T06:48:24;101832.00;;;7.70;100.00
64544;BME280;50936;51.660;5.616;2023-02-02T06:50:52;101847.28;;;7.69;100.00
64544;BME280;50936;51.660;5.616;2023-02-02T06:53:22;101848.22;;;7.68;100.00
64544;BME280;50936;51.660;5.616;2023-02-02T06:55:57;101846.31;;;7.70;100.00
64544;BME280;50936;51.660;5.616;2023-02-02T06:58:27;101848.22;;;7.68;100.00
64544;BME280;50936;51.660;5.616;2023-02-02T07:01:02;101848.22;;;7.68;100.00
64544;BME280;50936;51.660;5.616;2023-02-02T07:03:31;101846.47;;;7.67;100.00
64544;BME280;50936;51.660;5.616;2023-02-02T07:06:08;101849.28;;;7.64;100.00
64544;BME280;50936;51.660;5.616;2023-02-02T07:08:44;101862.84;;;7.61;100.00
64544;BME280;50936;51.660;5.616;2023-02-02T07:11:25;101855.03;;;7.55;100.00
64544;BME280;50936;51.660;5.616;2023-02-02T07:13:52;101860.53;;;7.52;100.00
64544;BME280;50936;51.660;5.616;2023-02-02T07:16:20;101860.63;;;7.49;100.00
64544;BME280;50936;51.660;5.616;2023-02-02T07:18:47;101865.22;;;7.47;100.00
64544;BME280;50936;51.660;5.616;2023-02-02T07:21:23;101856.44;;;7.42;100.00
64544;BME280;50936;51.660;5.616;2023-02-02T07:23:51;101862.72;;;7.42;100.00
64544;BME280;50936;51.660;5.616;2023-02-02T07:26:18;101865.34;;;7.44;100.00
64544;BME280;50936;51.660;5.616;2023-02-02T07:28:46;101852.94;;;7.40;100.00
64544;BME280;50936;51.660;5.616;2023-02-02T07:31:16;101859.28;;;7.39;100.00
64544;BME280;50936;51.660;5.616;2023-02-02T07:33:49;101851.31;;;7.36;100.00
64544;BME280;50936;51.660;5.616;2023-02-02T07:36:18;101855.94;;;7.32;100.00
64544;BME280;50936;51.660;5.616;2023-02-02T07:38:47;101864.22;;;7.27;100.00
64544;BME280;50936;51.660;5.616;2023-02-02T07:41:16;101860.72;;;7.25;100.00
64544;BME280;50936;51.660;5.616;2023-02-02T07:43:45;101874.19;;;7.24;100.00
64544;BME280;50936;51.660;5.616;2023-02-02T07:46:14;101877.88;;;7.21;100.00
64544;BME280;50936;51.660;5.616;2023-02-02T07:48:42;101876.25;;;7.17;100.00
64544;BME280;50936;51.660;5.616;2023-02-02T07:51:14;101893.41;;;7.13;100.00
64544;BME280;50936;51.660;5.616;2023-02-02T07:53:44;101893.47;;;7.11;100.00
64544;BME280;50936;51.660;5.616;2023-02-02T07:56:16;101903.28;;;7.12;100.00
64544;BME280;50936;51.660;5.616;2023-02-02T07:58:47;101898.78;;;7.13;100.00
64544;BME280;50936;51.660;5.616;2023-02-02T08:01:17;101898.66;;;7.16;100.00
64544;BME280;50936;51.660;5.616;2023-02-02T08:03:46;101887.78;;;7.19;100.00
64544;BME280;50936;51.660;5.616;2023-02-02T08:08:50;101904.38;;;7.30;100.00
64544;BME280;50936;51.660;5.616;2023-02-02T08:11:20;101896.09;;;7.37;100.00
64544;BME280;50936;51.660;5.616;2023-02-02T08:13:49;101902.28;;;7.39;100.00
64544;BME280;50936;51.660;5.616;2023-02-02T08:16:18;101904.81;;;7.42;100.00
64544;BME280;50936;51.660;5.616;2023-02-02T08:18:47;101908.22;;;7.47;100.00
64544;BME280;50936;51.660;5.616;2023-02-02T08:21:14;101907.28;;;7.48;100.00
64544;BME280;50936;51.660;5.616;2023-02-02T08:23:43;101909.97;;;7.48;100.00
64544;BME280;50936;51.660;5.616;2023-02-02T08:26:27;101913.47;;;7.50;100.00
64544;BME280;50936;51.660;5.616;2023-02-02T08:28:58;101906.97;;;7.56;100.00
64544;BME280;50936;51.660;5.616;2023-02-02T08:31:35;101913.13;;;7.59;100.00
64544;BME280;50936;51.660;5.616;2023-02-02T08:34:07;101911.22;;;7.61;100.00
64544;BME280;50936;51.660;5.616;2023-02-02T08:36:34;101920.00;;;7.66;100.00
64544;BME280;50936;51.660;5.616;2023-02-02T08:39:04;101914.63;;;7.66;100.00
64544;BME280;50936;51.660;5.616;2023-02-02T08:41:33;101929.84;;;7.67;100.00
64544;BME280;50936;51.660;5.616;2023-02-02T08:44:00;101936.03;;;7.69;100.00
64544;BME280;50936;51.660;5.616;2023-02-02T08:46:27;101953.03;;;7.70;100.00
64544;BME280;50936;51.660;5.616;2023-02-02T08:48:54;101954.75;;;7.71;100.00
64544;BME280;50936;51.660;5.616;2023-02-02T08:51:21;101963.66;;;7.73;100.00
64544;BME280;50936;51.660;5.616;2023-02-02T08:53:48;101959.16;;;7.74;100.00
64544;BME280;50936;51.660;5.616;2023-02-02T08:56:19;101965.28;;;7.77;100.00
64544;BME280;50936;51.660;5.616;2023-02-02T08:58:50;101968.91;;;7.76;100.00
64544;BME280;50936;51.660;5.616;2023-02-02T09:01:24;101971.53;;;7.78;100.00
64544;BME280;50936;51.660;5.616;2023-02-02T09:03:58;101980.41;;;7.80;100.00
64544;BME280;50936;51.660;5.616;2023-02-02T09:06:35;101980.41;;;7.80;100.00
64544;BME280;50936;51.660;5.616;2023-02-02T09:09:06;101989.19;;;7.85;100.00
64544;BME280;50936;51.660;5.616;2023-02-02T09:11:36;101995.44;;;7.85;100.00
64544;BME280;50936;51.660;5.616;2023-02-02T09:14:04;101998.94;;;7.87;100.00
64544;BME280;50936;51.660;5.616;2023-02-02T09:16:33;101995.25;;;7.90;100.00
64544;BME280;50936;51.660;5.616;2023-02-02T09:19:02;102006.84;;;7.92;100.00
64544;BME280;50936;51.660;5.616;2023-02-02T09:21:29;101997.84;;;7.93;100.00
64544;BME280;50936;51.660;5.616;2023-02-02T09:23:56;102007.66;;;7.94;100.00
64544;BME280;50936;51.660;5.616;2023-02-02T09:26:28;102003.03;;;7.98;100.00
64544;BME280;50936;51.660;5.616;2023-02-02T09:28:58;102009.22;;;8.00;100.00
64544;BME280;50936;51.660;5.616;2023-02-02T09:31:30;102008.34;;;7.99;100.00
64544;BME280;50936;51.660;5.616;2023-02-02T09:34:04;102008.09;;;8.05;100.00
64544;BME280;50936;51.660;5.616;2023-02-02T09:36:34;102015.72;;;8.16;100.00
64544;BME280;50936;51.660;5.616;2023-02-02T09:39:03;102024.56;;;8.20;100.00
64544;BME280;50936;51.660;5.616;2023-02-02T09:53:18;102041.03;;;8.34;100.00
64544;BME280;50936;51.660;5.616;2023-02-02T09:55:51;102032.75;;;8.39;100.00
64544;BME280;50936;51.660;5.616;2023-02-02T09:58:35;102039.81;;;8.43;100.00
64544;BME280;50936;51.660;5.616;2023-02-02T10:03:57;102052.19;;;8.47;100.00
64544;BME280;50936;51.660;5.616;2023-02-02T10:06:37;102049.56;;;8.45;100.00
64544;BME280;50936;51.660;5.616;2023-02-02T10:18:20;102051.16;;;8.27;100.00
64544;BME280;50936;51.660;5.616;2023-02-02T10:21:03;102059.16;;;8.29;100.00
64544;BME280;50936;51.660;5.616;2023-02-02T10:23:38;102058.41;;;8.25;100.00
64544;BME280;50936;51.660;5.616;2023-02-02T10:29:16;102065.88;;;8.19;100.00
64544;BME280;50936;51.660;5.616;2023-02-02T10:35:15;102061.31;;;8.21;100.00
64544;BME280;50936;51.660;5.616;2023-02-02T10:38:05;102066.44;;;8.27;100.00
64544;BME280;50936;51.660;5.616;2023-02-02T10:40:52;102062.56;;;8.34;100.00
64544;BME280;50936;51.660;5.616;2023-02-02T10:46:27;102065.44;;;8.52;100.00
64544;BME280;50936;51.660;5.616;2023-02-02T10:52:10;102052.56;;;8.60;100.00
64544;BME280;50936;51.660;5.616;2023-02-02T11:03:09;102080.31;;;8.62;100.00
64544;BME280;50936;51.660;5.616;2023-02-02T11:05:39;102089.25;;;8.62;100.00
64544;BME280;50936;51.660;5.616;2023-02-02T11:08:39;102084.00;;;8.59;100.00
64544;BME280;50936;51.660;5.616;2023-02-02T11:14:15;102069.53;;;8.62;100.00
64544;BME280;50936;51.660;5.616;2023-02-02T11:17:01;102073.09;;;8.62;100.00
64544;BME280;50936;51.660;5.616;2023-02-02T11:19:33;102068.59;;;8.63;100.00
64544;BME280;50936;51.660;5.616;2023-02-02T11:22:02;102065.00;;;8.62;100.00
64544;BME280;50936;51.660;5.616;2023-02-02T11:24:39;102070.41;;;8.62;100.00
64544;BME280;50936;51.660;5.616;2023-02-02T11:27:22;102079.44;;;8.61;100.00
64544;BME280;50936;51.660;5.616;2023-02-02T11:29:55;102070.59;;;8.58;100.00
64544;BME280;50936;51.660;5.616;2023-02-02T11:37:34;102076.69;;;8.63;100.00
64544;BME280;50936;51.660;5.616;2023-02-02T11:43:27;102064.63;;;8.72;100.00
64544;BME280;50936;51.660;5.616;2023-02-02T11:46:02;102064.44;;;8.76;100.00
64544;BME280;50936;51.660;5.616;2023-02-02T11:48:34;102072.47;;;8.78;100.00
64544;BME280;50936;51.660;5.616;2023-02-02T11:51:05;102068.81;;;8.79;100.00
64544;BME280;50936;51.660;5.616;2023-02-02T11:53:46;102061.88;;;8.73;100.00
64544;BME280;50936;51.660;5.616;2023-02-02T11:56:23;102063.88;;;8.68;100.00
64544;BME280;50936;51.660;5.616;2023-02-02T11:58:53;102059.56;;;8.64;100.00
64544;BME280;50936;51.660;5.616;2023-02-02T12:01:33;102066.84;;;8.62;100.00
64544;BME280;50936;51.660;5.616;2023-02-02T12:04:23;102065.00;;;8.62;100.00
64544;BME280;50936;51.660;5.616;2023-02-02T12:06:51;102057.03;;;8.61;100.00
64544;BME280;50936;51.660;5.616;2023-02-02T12:09:21;102067.91;;;8.58;100.00
64544;BME280;50936;51.660;5.616;2023-02-02T12:12:07;102068.84;;;8.57;100.00
64544;BME280;50936;51.660;5.616;2023-02-02T12:17:43;102068.03;;;8.55;100.00
64544;BME280;50936;51.660;5.616;2023-02-02T12:20:17;102074.28;;;8.55;100.00
64544;BME280;50936;51.660;5.616;2023-02-02T12:23:08;102076.91;;;8.57;100.00
64544;BME280;50936;51.660;5.616;2023-02-02T12:25:48;102072.50;;;8.56;100.00
64544;BME280;50936;51.660;5.616;2023-02-02T12:31:50;102067.97;;;8.56;100.00
64544;BME280;50936;51.660;5.616;2023-02-02T12:34:50;102065.22;;;8.58;100.00
64544;BME280;50936;51.660;5.616;2023-02-02T12:37:59;102065.09;;;8.61;100.00
64544;BME280;50936;51.660;5.616;2023-02-02T12:40:40;102066.72;;;8.65;100.00
64544;BME280;50936;51.660;5.616;2023-02-02T12:44:16;102061.06;;;8.71;100.00
64544;BME280;50936;51.660;5.616;2023-02-02T12:50:38;102044.78;;;8.74;100.00
64544;BME280;50936;51.660;5.616;2023-02-02T13:04:54;102050.94;;;8.56;100.00
64544;BME280;50936;51.660;5.616;2023-02-02T13:07:54;102047.69;;;8.47;100.00
64544;BME280;50936;51.660;5.616;2023-02-02T13:10:44;102047.03;;;8.41;100.00
64544;BME280;50936;51.660;5.616;2023-02-02T13:13:22;102048.97;;;8.37;100.00
64544;BME280;50936;51.660;5.616;2023-02-02T13:16:05;102048.41;;;8.29;100.00
64544;BME280;50936;51.660;5.616;2023-02-02T13:19:03;102053.25;;;8.21;100.00
64544;BME280;50936;51.660;5.616;2023-02-02T13:21:34;102057.97;;;8.14;100.00
64544;BME280;50936;51.660;5.616;2023-02-02T13:24:06;102060.03;;;8.07;100.00
64544;BME280;50936;51.660;5.616;2023-02-02T13:26:43;102051.28;;;8.02;100.00
64544;BME280;50936;51.660;5.616;2023-02-02T13:32:30;102058.50;;;8.00;100.00
64544;BME280;50936;51.660;5.616;2023-02-02T13:38:22;102047.88;;;7.97;100.00
64544;BME280;50936;51.660;5.616;2023-02-02T13:40:54;102035.25;;;7.99;100.00
64544;BME280;50936;51.660;5.616;2023-02-02T13:49:20;102039.13;;;8.14;100.00
64544;BME280;50936;51.660;5.616;2023-02-02T13:52:24;102053.34;;;8.18;100.00
64544;BME280;50936;51.660;5.616;2023-02-02T13:58:07;102046.41;;;8.12;100.00
64544;BME280;50936;51.660;5.616;2023-02-02T14:00:55;102044.78;;;8.08;100.00
64544;BME280;50936;51.660;5.616;2023-02-02T14:03:35;102060.03;;;8.07;100.00
64544;BME280;50936;51.660;5.616;2023-02-02T14:06:14;102057.41;;;8.06;100.00
64544;BME280;50936;51.660;5.616;2023-02-02T14:08:46;102058.50;;;8.00;100.00
64544;BME280;50936;51.660;5.616;2023-02-02T14:11:18;102059.63;;;7.95;100.00
64544;BME280;50936;51.660;5.616;2023-02-02T14:13:54;102061.56;;;7.91;100.00
64544;BME280;50936;51.660;5.616;2023-02-02T14:16:46;102060.75;;;7.89;100.00
64544;BME280;50936;51.660;5.616;2023-02-02T14:29:57;102070.59;;;7.90;100.00
64544;BME280;50936;51.660;5.616;2023-02-02T14:34:58;102077.25;;;7.80;100.00
64544;BME280;50936;51.660;5.616;2023-02-02T14:38:21;102081.09;;;7.72;100.00
64544;BME280;50936;51.660;5.616;2023-02-02T14:41:03;102093.09;;;7.64;100.00
64544;BME280;50936;51.660;5.616;2023-02-02T14:44:14;102088.97;;;7.54;100.00
64544;BME280;50936;51.660;5.616;2023-02-02T14:46:41;102093.59;;;7.50;100.00
64544;BME280;50936;51.660;5.616;2023-02-02T14:49:17;102089.28;;;7.46;100.00
64544;BME280;50936;51.660;5.616;2023-02-02T14:51:50;102087.56;;;7.43;100.00
64544;BME280;50936;51.660;5.616;2023-02-02T14:54:20;102093.94;;;7.41;100.00
64544;BME280;50936;51.660;5.616;2023-02-02T14:56:55;102098.50;;;7.39;100.00
64544;BME280;50936;51.660;5.616;2023-02-02T14:59:37;102095.91;;;7.36;100.00
64544;BME280;50936;51.660;5.616;2023-02-02T15:02:22;102093.22;;;7.36;100.00
64544;BME280;50936;51.660;5.616;2023-02-02T15:08:06;102093.31;;;7.32;100.00
64544;BME280;50936;51.660;5.616;2023-02-02T15:10:55;102093.44;;;7.29;100.00
64544;BME280;50936;51.660;5.616;2023-02-02T15:13:24;102096.13;;;7.29;100.00
64544;BME280;50936;51.660;5.616;2023-02-02T15:16:14;102103.28;;;7.29;100.00
64544;BME280;50936;51.660;5.616;2023-02-02T15:18:59;102102.38;;;7.30;100.00
64544;BME280;50936;51.660;5.616;2023-02-02T15:21:36;102103.19;;;7.32;100.00
64544;BME280;50936;51.660;5.616;2023-02-02T15:24:15;102105.94;;;7.30;100.00
64544;BME280;50936;51.660;5.616;2023-02-02T15:26:47;102105.06;;;7.30;100.00
64544;BME280;50936;51.660;5.616;2023-02-02T15:29:23;102105.94;;;7.30;100.00
64544;BME280;50936;51.660;5.616;2023-02-02T15:32:18;102104.28;;;7.26;100.00
64544;BME280;50936;51.660;5.616;2023-02-02T15:35:19;102107.94;;;7.25;100.00
64544;BME280;50936;51.660;5.616;2023-02-02T15:37:58;102099.03;;;7.23;100.00
64544;BME280;50936;51.660;5.616;2023-02-02T15:40:30;102104.38;;;7.23;100.00